KLM5411 EHRD-EHBK
Flight info
| Callsign | KLM5411 |
|---|---|
| Flight time | 0h 27m |
| Altitude | 7000 |
| Route | INKET P57 OSGOS |
| Aircraft | A21N/M-SDE2E3FGHIRWXY/LB1 |
Departure
| Time | 2026-05-06 14:22 |
|---|---|
| Airport | Rotterdam The Hague Airport (EHRD) |
Arrival
| Time | 2026-05-06 14:49 |
|---|---|
| Airport | Maastricht Aachen Airport (EHBK) |
| Time | Latitude | Longitude | Altitude | Speed | Heading |
|---|---|---|---|---|---|
| 2026-05-06 13:50 | 51.95068 | 4.43369 | -15 ft | 0 kts | 327° |
| 2026-05-06 14:18 | 51.95082 | 4.43356 | -5 ft | 5 kts | 331° |
| 2026-05-06 14:18 | 51.95111 | 4.43370 | -5 ft | 8 kts | 23° |
| 2026-05-06 14:18 | 51.95154 | 4.43462 | -5 ft | 13 kts | 58° |
| 2026-05-06 14:19 | 51.95221 | 4.43457 | -5 ft | 13 kts | 329° |
| 2026-05-06 14:19 | 51.95213 | 4.43332 | -5 ft | 16 kts | 238° |
| 2026-05-06 14:19 | 51.95162 | 4.43203 | -5 ft | 14 kts | 237° |
| 2026-05-06 14:19 | 51.95120 | 4.43062 | -5 ft | 7 kts | 246° |
| 2026-05-06 14:20 | 51.95109 | 4.43020 | -5 ft | 0 kts | 249° |
| 2026-05-06 14:20 | 51.95108 | 4.43013 | -5 ft | 3 kts | 251° |
| 2026-05-06 14:20 | 51.95123 | 4.42941 | -5 ft | 12 kts | 308° |
| 2026-05-06 14:21 | 51.95197 | 4.42867 | -5 ft | 10 kts | 350° |
| 2026-05-06 14:21 | 51.95252 | 4.42937 | -5 ft | 12 kts | 57° |
| 2026-05-06 14:21 | 51.95300 | 4.43060 | -5 ft | 14 kts | 57° |
| 2026-05-06 14:21 | 51.95416 | 4.43344 | -4 ft | 66 kts | 56° |
| 2026-05-06 14:22 | 51.95805 | 4.44313 | -1 ft | 136 kts | 57° |
| 2026-05-06 14:22 | 51.96354 | 4.45699 | 579 ft | 147 kts | 56° |
| 2026-05-06 14:22 | 51.96907 | 4.47078 | 1342 ft | 152 kts | 55° |
| 2026-05-06 14:22 | 51.97449 | 4.48469 | 2219 ft | 154 kts | 57° |
| 2026-05-06 14:23 | 51.97989 | 4.50088 | 2857 ft | 174 kts | 70° |
| 2026-05-06 14:23 | 51.97960 | 4.52142 | 3401 ft | 198 kts | 108° |
| 2026-05-06 14:23 | 51.97122 | 4.54084 | 3846 ft | 225 kts | 133° |
| 2026-05-06 14:23 | 51.95858 | 4.55791 | 4342 ft | 249 kts | 140° |
| 2026-05-06 14:24 | 51.94431 | 4.57599 | 4823 ft | 271 kts | 139° |
| 2026-05-06 14:24 | 51.92997 | 4.59544 | 4888 ft | 271 kts | 136° |
| 2026-05-06 14:24 | 51.91596 | 4.61582 | 4885 ft | 272 kts | 135° |
| 2026-05-06 14:24 | 51.90207 | 4.63698 | 5045 ft | 276 kts | 134° |
| 2026-05-06 14:25 | 51.88814 | 4.65863 | 5796 ft | 279 kts | 134° |
| 2026-05-06 14:25 | 51.87736 | 4.67540 | 6389 ft | 281 kts | 134° |
| 2026-05-06 14:25 | 51.86321 | 4.69737 | 6725 ft | 282 kts | 134° |
| 2026-05-06 14:25 | 51.84895 | 4.71940 | 6859 ft | 283 kts | 134° |
| 2026-05-06 14:26 | 51.83468 | 4.74130 | 6883 ft | 284 kts | 134° |
| 2026-05-06 14:26 | 51.82038 | 4.76320 | 6882 ft | 283 kts | 134° |
| 2026-05-06 14:26 | 51.80678 | 4.78604 | 6881 ft | 282 kts | 129° |
| 2026-05-06 14:26 | 51.79380 | 4.80979 | 6882 ft | 281 kts | 129° |
| 2026-05-06 14:27 | 51.78075 | 4.83359 | 6882 ft | 283 kts | 130° |
| 2026-05-06 14:27 | 51.76768 | 4.85732 | 6879 ft | 283 kts | 129° |
| 2026-05-06 14:27 | 51.75452 | 4.88111 | 6882 ft | 285 kts | 130° |
| 2026-05-06 14:27 | 51.74138 | 4.90486 | 6884 ft | 283 kts | 130° |
| 2026-05-06 14:28 | 51.72852 | 4.92805 | 6879 ft | 281 kts | 129° |
| 2026-05-06 14:28 | 51.72425 | 4.93576 | 6883 ft | 281 kts | 129° |
| 2026-05-06 14:28 | 51.71071 | 4.96023 | 6884 ft | 283 kts | 130° |
| 2026-05-06 14:28 | 51.69762 | 4.98389 | 6885 ft | 282 kts | 130° |
| 2026-05-06 14:29 | 51.68449 | 5.00754 | 6885 ft | 282 kts | 130° |
| 2026-05-06 14:29 | 51.67141 | 5.03110 | 6882 ft | 283 kts | 130° |
| 2026-05-06 14:29 | 51.65816 | 5.05491 | 6882 ft | 285 kts | 130° |
| 2026-05-06 14:29 | 51.64500 | 5.07855 | 6884 ft | 282 kts | 130° |
| 2026-05-06 14:30 | 51.63192 | 5.10202 | 6884 ft | 282 kts | 130° |
| 2026-05-06 14:30 | 51.61877 | 5.12561 | 6885 ft | 284 kts | 130° |
| 2026-05-06 14:30 | 51.60561 | 5.14922 | 6881 ft | 282 kts | 130° |
| 2026-05-06 14:30 | 51.59248 | 5.17277 | 6883 ft | 283 kts | 130° |
| 2026-05-06 14:31 | 51.57951 | 5.19597 | 6881 ft | 282 kts | 130° |
| 2026-05-06 14:31 | 51.56641 | 5.21935 | 6882 ft | 281 kts | 130° |
| 2026-05-06 14:31 | 51.55330 | 5.24274 | 6884 ft | 283 kts | 130° |
| 2026-05-06 14:31 | 51.54009 | 5.26632 | 6883 ft | 283 kts | 130° |
| 2026-05-06 14:32 | 51.52691 | 5.28983 | 6886 ft | 284 kts | 130° |
| 2026-05-06 14:32 | 51.51368 | 5.31339 | 6881 ft | 282 kts | 130° |
| 2026-05-06 14:32 | 51.50310 | 5.33223 | 6884 ft | 282 kts | 130° |
| 2026-05-06 14:32 | 51.48992 | 5.35564 | 6883 ft | 284 kts | 130° |
| 2026-05-06 14:33 | 51.47667 | 5.37918 | 6880 ft | 284 kts | 130° |
| 2026-05-06 14:33 | 51.46401 | 5.40339 | 6886 ft | 282 kts | 122° |
| 2026-05-06 14:33 | 51.45300 | 5.42943 | 6884 ft | 282 kts | 122° |
| 2026-05-06 14:33 | 51.44196 | 5.45547 | 6885 ft | 282 kts | 122° |
| 2026-05-06 14:34 | 51.43088 | 5.48147 | 6883 ft | 283 kts | 122° |
| 2026-05-06 14:34 | 51.41975 | 5.50750 | 6886 ft | 283 kts | 122° |
| 2026-05-06 14:34 | 51.40860 | 5.53356 | 6885 ft | 283 kts | 122° |
| 2026-05-06 14:34 | 51.39749 | 5.55947 | 6885 ft | 282 kts | 122° |
| 2026-05-06 14:35 | 51.38650 | 5.58507 | 6882 ft | 283 kts | 122° |
| 2026-05-06 14:35 | 51.37535 | 5.61104 | 6883 ft | 283 kts | 122° |
| 2026-05-06 14:35 | 51.36405 | 5.63734 | 6882 ft | 283 kts | 122° |
| 2026-05-06 14:35 | 51.35303 | 5.66296 | 6892 ft | 283 kts | 122° |
| 2026-05-06 14:36 | 51.34193 | 5.68879 | 6872 ft | 284 kts | 122° |
| 2026-05-06 14:36 | 51.33071 | 5.71474 | 6878 ft | 282 kts | 122° |
| 2026-05-06 14:36 | 51.31968 | 5.74023 | 6877 ft | 283 kts | 122° |
| 2026-05-06 14:36 | 51.30845 | 5.76621 | 6876 ft | 284 kts | 122° |
| 2026-05-06 14:37 | 51.29720 | 5.79220 | 6873 ft | 284 kts | 122° |
| 2026-05-06 14:37 | 51.28596 | 5.81814 | 6868 ft | 284 kts | 122° |
| 2026-05-06 14:37 | 51.27478 | 5.84392 | 6871 ft | 285 kts | 122° |
| 2026-05-06 14:37 | 51.26339 | 5.87019 | 6866 ft | 284 kts | 122° |
| 2026-05-06 14:38 | 51.25034 | 5.89374 | 6865 ft | 287 kts | 143° |
| 2026-05-06 14:38 | 51.23709 | 5.90452 | 6863 ft | 290 kts | 163° |
| 2026-05-06 14:38 | 51.21767 | 5.91012 | 6859 ft | 290 kts | 173° |
| 2026-05-06 14:38 | 51.19767 | 5.91392 | 6858 ft | 290 kts | 174° |
| 2026-05-06 14:39 | 51.17759 | 5.91640 | 6863 ft | 289 kts | 181° |
| 2026-05-06 14:39 | 51.15744 | 5.91538 | 6773 ft | 290 kts | 182° |
| 2026-05-06 14:39 | 51.13726 | 5.91458 | 6647 ft | 289 kts | 181° |
| 2026-05-06 14:39 | 51.11714 | 5.91399 | 6527 ft | 289 kts | 181° |
| 2026-05-06 14:40 | 51.09707 | 5.91350 | 6405 ft | 288 kts | 181° |
| 2026-05-06 14:40 | 51.07706 | 5.91302 | 6281 ft | 288 kts | 181° |
| 2026-05-06 14:40 | 51.05698 | 5.91252 | 6145 ft | 288 kts | 182° |
| 2026-05-06 14:40 | 51.03738 | 5.90891 | 6025 ft | 286 kts | 190° |
| 2026-05-06 14:41 | 51.01771 | 5.90370 | 5895 ft | 286 kts | 190° |
| 2026-05-06 14:41 | 50.99824 | 5.89863 | 5766 ft | 285 kts | 190° |
| 2026-05-06 14:41 | 50.97862 | 5.89357 | 5635 ft | 285 kts | 190° |
| 2026-05-06 14:41 | 50.96035 | 5.88889 | 5519 ft | 284 kts | 190° |
| 2026-05-06 14:42 | 50.94076 | 5.88388 | 5198 ft | 284 kts | 190° |
| 2026-05-06 14:42 | 50.92138 | 5.87892 | 4861 ft | 280 kts | 190° |
| 2026-05-06 14:42 | 50.90230 | 5.87405 | 4516 ft | 275 kts | 189° |
| 2026-05-06 14:42 | 50.88459 | 5.86951 | 4215 ft | 271 kts | 189° |
| 2026-05-06 14:43 | 50.86566 | 5.86467 | 3890 ft | 266 kts | 189° |
| 2026-05-06 14:43 | 50.84755 | 5.85913 | 3526 ft | 263 kts | 198° |
| 2026-05-06 14:43 | 50.83073 | 5.84732 | 3042 ft | 265 kts | 214° |
| 2026-05-06 14:43 | 50.81581 | 5.83108 | 2887 ft | 254 kts | 216° |
| 2026-05-06 14:44 | 50.80179 | 5.81603 | 2882 ft | 238 kts | 215° |
| 2026-05-06 14:44 | 50.78900 | 5.80132 | 2857 ft | 219 kts | 230° |
| 2026-05-06 14:44 | 50.78229 | 5.78134 | 2807 ft | 196 kts | 263° |
| 2026-05-06 14:45 | 50.78883 | 5.74536 | 2615 ft | 160 kts | 309° |
| 2026-05-06 14:45 | 50.79511 | 5.73144 | 2539 ft | 151 kts | 308° |
| 2026-05-06 14:45 | 50.80091 | 5.71802 | 2332 ft | 147 kts | 308° |
| 2026-05-06 14:45 | 50.80650 | 5.70498 | 2096 ft | 145 kts | 308° |
| 2026-05-06 14:46 | 50.81251 | 5.69227 | 1955 ft | 137 kts | 319° |
| 2026-05-06 14:46 | 50.82039 | 5.68572 | 1787 ft | 126 kts | 354° |
| 2026-05-06 14:46 | 50.82887 | 5.68757 | 1805 ft | 129 kts | 19° |
| 2026-05-06 14:46 | 50.83682 | 5.69401 | 1794 ft | 128 kts | 30° |
| 2026-05-06 14:47 | 50.84429 | 5.70190 | 1794 ft | 130 kts | 31° |
| 2026-05-06 14:47 | 50.85188 | 5.70957 | 1617 ft | 127 kts | 30° |
| 2026-05-06 14:47 | 50.85935 | 5.71711 | 1455 ft | 129 kts | 30° |
| 2026-05-06 14:47 | 50.86692 | 5.72478 | 1258 ft | 128 kts | 30° |
| 2026-05-06 14:48 | 50.87437 | 5.73232 | 1064 ft | 129 kts | 30° |
| 2026-05-06 14:48 | 50.88187 | 5.73984 | 845 ft | 130 kts | 30° |
| 2026-05-06 14:48 | 50.88950 | 5.74747 | 679 ft | 130 kts | 30° |
| 2026-05-06 14:48 | 50.89611 | 5.75423 | 537 ft | 128 kts | 30° |
| 2026-05-06 14:49 | 50.90358 | 5.76176 | 407 ft | 124 kts | 30° |
| 2026-05-06 14:49 | 50.90886 | 5.76710 | 382 ft | 87 kts | 33° |
| 2026-05-06 14:49 | 50.91189 | 5.77020 | 383 ft | 41 kts | 32° |
| 2026-05-06 14:49 | 50.91342 | 5.77175 | 384 ft | 12 kts | 33° |
| 2026-05-06 14:50 | 50.91413 | 5.77209 | 384 ft | 8 kts | 338° |
| 2026-05-06 14:50 | 50.91446 | 5.77146 | 384 ft | 9 kts | 304° |
| 2026-05-06 14:50 | 50.91469 | 5.77090 | 384 ft | 0 kts | 304° |
| 2026-05-06 14:51 | 50.91472 | 5.77084 | 384 ft | 3 kts | 304° |
| 2026-05-06 14:52 | 50.91480 | 5.77027 | 384 ft | 7 kts | 257° |
| 2026-05-06 14:52 | 50.91436 | 5.76959 | 384 ft | 11 kts | 212° |
| 2026-05-06 14:52 | 50.91427 | 5.76927 | 384 ft | 2 kts | 280° |
| 2026-05-06 14:52 | 50.91443 | 5.76917 | 384 ft | 4 kts | 339° |
| 2026-05-06 14:53 | 50.91475 | 5.76903 | 384 ft | 4 kts | 347° |
| 2026-05-06 14:53 | 50.91478 | 5.76902 | 384 ft | 0 kts | 347° |